sensor_id;sensor_type;location;lat;lon;timestamp;P1;durP1;ratioP1;P2;durP2;ratioP2
73678;SDS011;61978;52.742;16.962;2022-12-18T00:00:48;102.85;;;42.70;;
73678;SDS011;61978;52.742;16.962;2022-12-18T00:03:15;95.42;;;41.40;;
73678;SDS011;61978;52.742;16.962;2022-12-18T00:05:47;127.78;;;42.17;;
73678;SDS011;61978;52.742;16.962;2022-12-18T00:08:18;102.05;;;42.43;;
73678;SDS011;61978;52.742;16.962;2022-12-18T00:10:46;115.65;;;42.20;;
73678;SDS011;61978;52.742;16.962;2022-12-18T00:13:12;103.47;;;46.23;;
73678;SDS011;61978;52.742;16.962;2022-12-18T00:15:39;101.12;;;45.10;;
73678;SDS011;61978;52.742;16.962;2022-12-18T00:18:05;107.22;;;47.50;;
73678;SDS011;61978;52.742;16.962;2022-12-18T00:20:38;106.45;;;46.60;;
73678;SDS011;61978;52.742;16.962;2022-12-18T00:23:06;95.42;;;45.43;;
73678;SDS011;61978;52.742;16.962;2022-12-18T00:25:34;113.45;;;48.80;;
73678;SDS011;61978;52.742;16.962;2022-12-18T00:28:03;96.92;;;45.80;;
73678;SDS011;61978;52.742;16.962;2022-12-18T00:30:31;115.00;;;44.88;;
73678;SDS011;61978;52.742;16.962;2022-12-18T00:32:59;107.17;;;47.53;;
73678;SDS011;61978;52.742;16.962;2022-12-18T00:35:25;89.67;;;42.15;;
73678;SDS011;61978;52.742;16.962;2022-12-18T00:37:52;121.97;;;44.30;;
73678;SDS011;61978;52.742;16.962;2022-12-18T00:40:18;98.70;;;43.83;;
73678;SDS011;61978;52.742;16.962;2022-12-18T00:42:44;120.67;;;44.75;;
73678;SDS011;61978;52.742;16.962;2022-12-18T00:45:24;113.50;;;45.52;;
73678;SDS011;61978;52.742;16.962;2022-12-18T00:47:52;102.50;;;47.23;;
73678;SDS011;61978;52.742;16.962;2022-12-18T00:50:18;101.33;;;43.55;;
73678;SDS011;61978;52.742;16.962;2022-12-18T00:52:45;106.12;;;43.85;;
73678;SDS011;61978;52.742;16.962;2022-12-18T00:55:11;113.12;;;43.87;;
73678;SDS011;61978;52.742;16.962;2022-12-18T00:57:38;100.00;;;45.85;;
73678;SDS011;61978;52.742;16.962;2022-12-18T01:00:05;113.05;;;46.83;;
73678;SDS011;61978;52.742;16.962;2022-12-18T01:02:36;120.42;;;42.88;;
73678;SDS011;61978;52.742;16.962;2022-12-18T01:05:03;110.20;;;42.95;;
73678;SDS011;61978;52.742;16.962;2022-12-18T01:07:30;142.07;;;47.60;;
73678;SDS011;61978;52.742;16.962;2022-12-18T01:09:56;106.58;;;43.78;;
73678;SDS011;61978;52.742;16.962;2022-12-18T01:12:23;102.15;;;43.17;;
73678;SDS011;61978;52.742;16.962;2022-12-18T01:14:49;119.67;;;45.10;;
73678;SDS011;61978;52.742;16.962;2022-12-18T01:17:15;107.22;;;44.27;;
73678;SDS011;61978;52.742;16.962;2022-12-18T01:19:42;113.77;;;45.65;;
73678;SDS011;61978;52.742;16.962;2022-12-18T01:22:09;111.52;;;46.13;;
73678;SDS011;61978;52.742;16.962;2022-12-18T01:24:37;108.92;;;44.08;;
73678;SDS011;61978;52.742;16.962;2022-12-18T01:27:03;105.43;;;45.05;;
73678;SDS011;61978;52.742;16.962;2022-12-18T01:29:29;97.85;;;42.17;;
73678;SDS011;61978;52.742;16.962;2022-12-18T01:31:56;103.75;;;46.63;;
73678;SDS011;61978;52.742;16.962;2022-12-18T01:34:23;116.28;;;41.48;;
73678;SDS011;61978;52.742;16.962;2022-12-18T01:36:53;94.62;;;40.45;;
73678;SDS011;61978;52.742;16.962;2022-12-18T01:39:19;87.42;;;43.00;;
73678;SDS011;61978;52.742;16.962;2022-12-18T01:41:46;116.95;;;41.85;;
73678;SDS011;61978;52.742;16.962;2022-12-18T01:50:24;85.07;;;40.90;;
73678;SDS011;61978;52.742;16.962;2022-12-18T01:52:47;86.15;;;39.18;;
73678;SDS011;61978;52.742;16.962;2022-12-18T01:55:17;83.90;;;40.20;;
73678;SDS011;61978;52.742;16.962;2022-12-18T01:57:46;92.33;;;41.68;;
73678;SDS011;61978;52.742;16.962;2022-12-18T02:00:16;84.83;;;39.78;;
73678;SDS011;61978;52.742;16.962;2022-12-18T02:02:45;103.17;;;43.02;;
73678;SDS011;61978;52.742;16.962;2022-12-18T02:05:12;97.78;;;41.45;;
73678;SDS011;61978;52.742;16.962;2022-12-18T02:13:04;92.60;;;42.17;;
73678;SDS011;61978;52.742;16.962;2022-12-18T02:18:40;92.70;;;43.17;;
73678;SDS011;61978;52.742;16.962;2022-12-18T02:21:19;102.05;;;41.88;;
73678;SDS011;61978;52.742;16.962;2022-12-18T02:26:30;90.03;;;40.30;;
73678;SDS011;61978;52.742;16.962;2022-12-18T04:47:01;103.17;;;43.73;;
73678;SDS011;61978;52.742;16.962;2022-12-18T04:49:29;95.97;;;44.45;;
73678;SDS011;61978;52.742;16.962;2022-12-18T04:51:55;95.77;;;44.48;;
73678;SDS011;61978;52.742;16.962;2022-12-18T04:54:23;96.30;;;44.65;;
73678;SDS011;61978;52.742;16.962;2022-12-18T04:56:49;102.53;;;46.18;;
73678;SDS011;61978;52.742;16.962;2022-12-18T04:59:16;104.27;;;40.75;;
73678;SDS011;61978;52.742;16.962;2022-12-18T05:01:43;82.57;;;40.85;;
73678;SDS011;61978;52.742;16.962;2022-12-18T05:04:11;88.67;;;43.98;;
73678;SDS011;61978;52.742;16.962;2022-12-18T05:06:38;102.00;;;43.23;;
73678;SDS011;61978;52.742;16.962;2022-12-18T05:09:06;98.07;;;44.53;;
73678;SDS011;61978;52.742;16.962;2022-12-18T05:11:32;85.60;;;41.98;;
73678;SDS011;61978;52.742;16.962;2022-12-18T05:14:01;88.30;;;41.53;;
73678;SDS011;61978;52.742;16.962;2022-12-18T05:16:28;87.33;;;41.77;;
73678;SDS011;61978;52.742;16.962;2022-12-18T05:18:54;88.25;;;39.98;;
73678;SDS011;61978;52.742;16.962;2022-12-18T05:21:21;87.90;;;39.13;;
73678;SDS011;61978;52.742;16.962;2022-12-18T05:23:47;86.63;;;40.35;;
73678;SDS011;61978;52.742;16.962;2022-12-18T05:26:15;92.00;;;40.83;;
73678;SDS011;61978;52.742;16.962;2022-12-18T05:28:43;83.80;;;39.25;;
73678;SDS011;61978;52.742;16.962;2022-12-18T05:31:10;83.33;;;39.33;;
73678;SDS011;61978;52.742;16.962;2022-12-18T05:33:36;90.92;;;40.30;;
73678;SDS011;61978;52.742;16.962;2022-12-18T05:36:04;86.25;;;41.15;;
73678;SDS011;61978;52.742;16.962;2022-12-18T05:38:33;95.03;;;41.73;;
73678;SDS011;61978;52.742;16.962;2022-12-18T05:44:18;90.05;;;41.63;;
73678;SDS011;61978;52.742;16.962;2022-12-18T05:46:44;90.25;;;41.28;;
73678;SDS011;61978;52.742;16.962;2022-12-18T05:49:11;90.83;;;41.10;;
73678;SDS011;61978;52.742;16.962;2022-12-18T05:51:38;97.72;;;44.30;;
73678;SDS011;61978;52.742;16.962;2022-12-18T05:54:08;85.15;;;40.78;;
73678;SDS011;61978;52.742;16.962;2022-12-18T05:56:35;86.57;;;42.80;;
73678;SDS011;61978;52.742;16.962;2022-12-18T05:59:01;77.40;;;40.60;;
73678;SDS011;61978;52.742;16.962;2022-12-18T06:01:27;71.92;;;36.93;;
73678;SDS011;61978;52.742;16.962;2022-12-18T06:03:53;72.45;;;37.50;;
73678;SDS011;61978;52.742;16.962;2022-12-18T06:06:24;78.12;;;38.05;;
73678;SDS011;61978;52.742;16.962;2022-12-18T06:08:52;90.77;;;36.08;;
73678;SDS011;61978;52.742;16.962;2022-12-18T06:11:21;105.55;;;35.23;;
73678;SDS011;61978;52.742;16.962;2022-12-18T06:13:52;79.47;;;36.28;;
73678;SDS011;61978;52.742;16.962;2022-12-18T06:16:19;94.95;;;43.08;;
73678;SDS011;61978;52.742;16.962;2022-12-18T06:18:46;92.97;;;43.48;;
73678;SDS011;61978;52.742;16.962;2022-12-18T06:21:12;86.20;;;42.27;;
73678;SDS011;61978;52.742;16.962;2022-12-18T06:23:40;108.78;;;47.48;;
73678;SDS011;61978;52.742;16.962;2022-12-18T06:26:08;106.95;;;45.48;;
73678;SDS011;61978;52.742;16.962;2022-12-18T06:28:37;88.42;;;42.03;;
73678;SDS011;61978;52.742;16.962;2022-12-18T06:31:03;99.15;;;43.55;;
73678;SDS011;61978;52.742;16.962;2022-12-18T06:33:31;111.17;;;50.25;;
73678;SDS011;61978;52.742;16.962;2022-12-18T06:36:04;98.82;;;46.65;;
73678;SDS011;61978;52.742;16.962;2022-12-18T06:38:40;82.08;;;41.35;;
73678;SDS011;61978;52.742;16.962;2022-12-18T06:41:08;93.33;;;45.45;;
73678;SDS011;61978;52.742;16.962;2022-12-18T06:43:44;99.10;;;47.30;;
73678;SDS011;61978;52.742;16.962;2022-12-18T06:46:11;152.20;;;72.95;;
73678;SDS011;61978;52.742;16.962;2022-12-18T06:48:38;149.80;;;65.45;;
73678;SDS011;61978;52.742;16.962;2022-12-18T06:51:05;121.20;;;49.40;;
73678;SDS011;61978;52.742;16.962;2022-12-18T06:53:32;161.60;;;80.35;;
73678;SDS011;61978;52.742;16.962;2022-12-18T06:56:05;117.08;;;56.58;;
73678;SDS011;61978;52.742;16.962;2022-12-18T06:58:32;149.40;;;68.12;;
73678;SDS011;61978;52.742;16.962;2022-12-18T07:01:04;227.53;;;109.10;;
73678;SDS011;61978;52.742;16.962;2022-12-18T07:03:28;223.28;;;87.05;;
73678;SDS011;61978;52.742;16.962;2022-12-18T07:05:55;191.92;;;83.95;;
73678;SDS011;61978;52.742;16.962;2022-12-18T07:08:21;148.75;;;50.67;;
73678;SDS011;61978;52.742;16.962;2022-12-18T07:10:48;122.50;;;54.05;;
73678;SDS011;61978;52.742;16.962;2022-12-18T07:13:17;112.22;;;47.38;;
73678;SDS011;61978;52.742;16.962;2022-12-18T07:15:43;115.42;;;50.00;;
73678;SDS011;61978;52.742;16.962;2022-12-18T07:18:10;197.72;;;85.60;;
73678;SDS011;61978;52.742;16.962;2022-12-18T07:20:36;290.85;;;122.05;;
73678;SDS011;61978;52.742;16.962;2022-12-18T07:23:03;188.82;;;46.83;;
73678;SDS011;61978;52.742;16.962;2022-12-18T07:25:34;228.20;;;102.42;;
73678;SDS011;61978;52.742;16.962;2022-12-18T07:28:01;213.80;;;83.07;;
73678;SDS011;61978;52.742;16.962;2022-12-18T07:30:32;79.70;;;34.95;;
73678;SDS011;61978;52.742;16.962;2022-12-18T07:32:59;140.80;;;55.92;;
73678;SDS011;61978;52.742;16.962;2022-12-18T07:35:25;146.53;;;62.05;;
73678;SDS011;61978;52.742;16.962;2022-12-18T07:37:52;140.60;;;62.90;;
73678;SDS011;61978;52.742;16.962;2022-12-18T07:40:18;88.37;;;41.05;;
73678;SDS011;61978;52.742;16.962;2022-12-18T07:42:46;131.35;;;44.00;;
73678;SDS011;61978;52.742;16.962;2022-12-18T07:45:13;92.82;;;42.67;;
73678;SDS011;61978;52.742;16.962;2022-12-18T07:47:39;103.55;;;47.48;;
73678;SDS011;61978;52.742;16.962;2022-12-18T07:50:06;128.82;;;56.37;;
73678;SDS011;61978;52.742;16.962;2022-12-18T07:52:36;190.68;;;81.53;;
73678;SDS011;61978;52.742;16.962;2022-12-18T07:55:03;89.17;;;39.73;;
73678;SDS011;61978;52.742;16.962;2022-12-18T07:57:30;107.12;;;40.10;;
73678;SDS011;61978;52.742;16.962;2022-12-18T07:59:57;102.55;;;38.78;;
73678;SDS011;61978;52.742;16.962;2022-12-18T08:02:23;127.30;;;47.40;;
73678;SDS011;61978;52.742;16.962;2022-12-18T08:08:32;112.47;;;47.45;;
73678;SDS011;61978;52.742;16.962;2022-12-18T08:17:13;133.47;;;58.65;;
73678;SDS011;61978;52.742;16.962;2022-12-18T08:29:43;93.85;;;36.83;;
73678;SDS011;61978;52.742;16.962;2022-12-18T08:32:12;159.22;;;62.83;;
73678;SDS011;61978;52.742;16.962;2022-12-18T08:34:38;125.82;;;51.18;;
73678;SDS011;61978;52.742;16.962;2022-12-18T08:37:05;144.70;;;56.85;;
73678;SDS011;61978;52.742;16.962;2022-12-18T08:39:33;136.85;;;59.53;;
73678;SDS011;61978;52.742;16.962;2022-12-18T08:42:02;130.75;;;58.35;;
73678;SDS011;61978;52.742;16.962;2022-12-18T08:44:48;121.40;;;49.67;;
73678;SDS011;61978;52.742;16.962;2022-12-18T08:47:19;126.07;;;51.05;;
73678;SDS011;61978;52.742;16.962;2022-12-18T08:49:48;110.48;;;44.95;;
73678;SDS011;61978;52.742;16.962;2022-12-18T08:52:14;124.02;;;51.65;;
73678;SDS011;61978;52.742;16.962;2022-12-18T08:54:40;109.07;;;43.50;;
73678;SDS011;61978;52.742;16.962;2022-12-18T08:57:07;108.05;;;47.67;;
73678;SDS011;61978;52.742;16.962;2022-12-18T08:59:34;112.83;;;46.50;;
73678;SDS011;61978;52.742;16.962;2022-12-18T09:02:16;103.30;;;43.50;;
73678;SDS011;61978;52.742;16.962;2022-12-18T09:04:46;102.92;;;41.02;;
73678;SDS011;61978;52.742;16.962;2022-12-18T09:16:43;90.38;;;39.58;;
73678;SDS011;61978;52.742;16.962;2022-12-18T09:19:08;97.15;;;41.10;;
73678;SDS011;61978;52.742;16.962;2022-12-18T09:21:37;122.02;;;51.35;;
73678;SDS011;61978;52.742;16.962;2022-12-18T09:24:08;102.58;;;43.02;;
73678;SDS011;61978;52.742;16.962;2022-12-18T09:26:37;101.67;;;43.52;;
73678;SDS011;61978;52.742;16.962;2022-12-18T09:29:06;92.42;;;40.73;;
73678;SDS011;61978;52.742;16.962;2022-12-18T09:31:36;91.53;;;39.35;;
73678;SDS011;61978;52.742;16.962;2022-12-18T09:48:41;143.62;;;62.13;;
73678;SDS011;61978;52.742;16.962;2022-12-18T10:30:39;120.40;;;47.25;;
73678;SDS011;61978;52.742;16.962;2022-12-18T10:33:14;107.83;;;44.08;;
73678;SDS011;61978;52.742;16.962;2022-12-18T10:35:43;183.78;;;82.22;;
73678;SDS011;61978;52.742;16.962;2022-12-18T10:43:25;109.32;;;49.60;;
73678;SDS011;61978;52.742;16.962;2022-12-18T10:54:06;127.80;;;60.78;;
73678;SDS011;61978;52.742;16.962;2022-12-18T10:56:42;113.75;;;54.10;;
73678;SDS011;61978;52.742;16.962;2022-12-18T10:59:10;216.93;;;102.92;;
73678;SDS011;61978;52.742;16.962;2022-12-18T11:01:47;114.50;;;48.98;;
73678;SDS011;61978;52.742;16.962;2022-12-18T11:04:18;138.15;;;58.25;;
73678;SDS011;61978;52.742;16.962;2022-12-18T11:06:56;108.63;;;48.08;;
73678;SDS011;61978;52.742;16.962;2022-12-18T11:09:27;104.67;;;47.58;;
73678;SDS011;61978;52.742;16.962;2022-12-18T11:12:01;139.07;;;71.10;;
73678;SDS011;61978;52.742;16.962;2022-12-18T11:19:58;116.70;;;54.58;;
73678;SDS011;61978;52.742;16.962;2022-12-18T11:22:25;147.13;;;66.87;;
73678;SDS011;61978;52.742;16.962;2022-12-18T11:24:56;177.62;;;95.92;;
73678;SDS011;61978;52.742;16.962;2022-12-18T11:27:27;168.45;;;81.10;;
73678;SDS011;61978;52.742;16.962;2022-12-18T11:30:07;141.95;;;63.00;;
73678;SDS011;61978;52.742;16.962;2022-12-18T11:32:40;114.00;;;49.30;;
73678;SDS011;61978;52.742;16.962;2022-12-18T11:35:17;113.70;;;52.08;;
73678;SDS011;61978;52.742;16.962;2022-12-18T11:37:49;90.55;;;42.88;;
73678;SDS011;61978;52.742;16.962;2022-12-18T11:40:21;84.10;;;43.42;;
73678;SDS011;61978;52.742;16.962;2022-12-18T11:42:52;104.80;;;53.15;;
73678;SDS011;61978;52.742;16.962;2022-12-18T11:53:20;110.08;;;56.37;;
73678;SDS011;61978;52.742;16.962;2022-12-18T11:55:56;127.78;;;60.12;;
73678;SDS011;61978;52.742;16.962;2022-12-18T12:01:53;85.90;;;42.45;;
73678;SDS011;61978;52.742;16.962;2022-12-18T12:09:57;88.22;;;43.05;;
73678;SDS011;61978;52.742;16.962;2022-12-18T12:17:42;149.87;;;71.05;;
73678;SDS011;61978;52.742;16.962;2022-12-18T12:25:40;182.65;;;69.67;;
73678;SDS011;61978;52.742;16.962;2022-12-18T12:33:35;106.92;;;49.45;;
73678;SDS011;61978;52.742;16.962;2022-12-18T12:36:03;108.43;;;47.60;;
73678;SDS011;61978;52.742;16.962;2022-12-18T12:38:49;91.75;;;44.42;;
73678;SDS011;61978;52.742;16.962;2022-12-18T12:41:20;113.12;;;50.92;;
73678;SDS011;61978;52.742;16.962;2022-12-18T12:44:08;94.77;;;50.67;;
73678;SDS011;61978;52.742;16.962;2022-12-18T12:46:38;145.62;;;68.78;;
73678;SDS011;61978;52.742;16.962;2022-12-18T12:49:14;100.60;;;48.60;;
73678;SDS011;61978;52.742;16.962;2022-12-18T12:51:47;91.17;;;46.10;;
73678;SDS011;61978;52.742;16.962;2022-12-18T12:54:17;103.45;;;48.60;;
73678;SDS011;61978;52.742;16.962;2022-12-18T12:56:48;83.95;;;42.90;;
73678;SDS011;61978;52.742;16.962;2022-12-18T12:59:34;85.83;;;45.47;;
73678;SDS011;61978;52.742;16.962;2022-12-18T13:05:18;88.97;;;46.25;;
73678;SDS011;61978;52.742;16.962;2022-12-18T13:08:07;97.17;;;46.48;;
73678;SDS011;61978;52.742;16.962;2022-12-18T13:10:41;97.72;;;50.95;;
73678;SDS011;61978;52.742;16.962;2022-12-18T13:13:09;95.62;;;51.83;;
73678;SDS011;61978;52.742;16.962;2022-12-18T13:15:41;97.10;;;49.88;;
73678;SDS011;61978;52.742;16.962;2022-12-18T13:22:51;89.22;;;48.68;;
73678;SDS011;61978;52.742;16.962;2022-12-18T13:24:53;96.35;;;48.48;;
73678;SDS011;61978;52.742;16.962;2022-12-18T13:33:42;88.80;;;48.15;;
73678;SDS011;61978;52.742;16.962;2022-12-18T13:36:13;82.72;;;42.80;;
73678;SDS011;61978;52.742;16.962;2022-12-18T13:38:41;148.02;;;77.42;;
73678;SDS011;61978;52.742;16.962;2022-12-18T13:43:45;260.27;;;108.20;;
73678;SDS011;61978;52.742;16.962;2022-12-18T13:46:29;87.08;;;45.60;;
73678;SDS011;61978;52.742;16.962;2022-12-18T13:51:29;82.22;;;47.00;;
73678;SDS011;61978;52.742;16.962;2022-12-18T13:54:02;73.95;;;44.85;;
73678;SDS011;61978;52.742;16.962;2022-12-18T13:56:42;75.32;;;44.25;;
73678;SDS011;61978;52.742;16.962;2022-12-18T14:01:44;73.75;;;42.65;;
73678;SDS011;61978;52.742;16.962;2022-12-18T14:04:35;76.92;;;45.00;;
73678;SDS011;61978;52.742;16.962;2022-12-18T14:09:40;76.85;;;43.15;;
73678;SDS011;61978;52.742;16.962;2022-12-18T14:12:25;74.25;;;42.78;;
73678;SDS011;61978;52.742;16.962;2022-12-18T14:17:54;79.05;;;46.18;;
73678;SDS011;61978;52.742;16.962;2022-12-18T14:20:29;95.75;;;51.80;;
73678;SDS011;61978;52.742;16.962;2022-12-18T14:22:58;90.67;;;53.40;;
73678;SDS011;61978;52.742;16.962;2022-12-18T14:25:26;80.53;;;49.20;;
73678;SDS011;61978;52.742;16.962;2022-12-18T14:28:08;70.57;;;41.45;;
73678;SDS011;61978;52.742;16.962;2022-12-18T14:30:37;64.22;;;39.80;;
73678;SDS011;61978;52.742;16.962;2022-12-18T14:33:10;64.12;;;38.33;;
73678;SDS011;61978;52.742;16.962;2022-12-18T14:35:58;63.63;;;39.25;;
73678;SDS011;61978;52.742;16.962;2022-12-18T14:41:06;66.17;;;39.75;;
73678;SDS011;61978;52.742;16.962;2022-12-18T14:43:38;62.80;;;39.08;;
73678;SDS011;61978;52.742;16.962;2022-12-18T14:46:52;64.12;;;41.20;;
73678;SDS011;61978;52.742;16.962;2022-12-18T14:48:40;63.23;;;39.83;;
73678;SDS011;61978;52.742;16.962;2022-12-18T14:51:15;66.77;;;40.60;;
73678;SDS011;61978;52.742;16.962;2022-12-18T14:53:48;71.17;;;42.27;;
73678;SDS011;61978;52.742;16.962;2022-12-18T14:56:21;66.57;;;42.00;;
73678;SDS011;61978;52.742;16.962;2022-12-18T15:01:26;73.00;;;44.27;;
73678;SDS011;61978;52.742;16.962;2022-12-18T15:03:55;75.03;;;44.08;;
73678;SDS011;61978;52.742;16.962;2022-12-18T15:06:27;81.17;;;47.38;;
73678;SDS011;61978;52.742;16.962;2022-12-18T15:08:56;73.62;;;44.38;;
73678;SDS011;61978;52.742;16.962;2022-12-18T15:18:32;88.65;;;52.15;;
73678;SDS011;61978;52.742;16.962;2022-12-18T15:27:03;84.30;;;52.08;;
73678;SDS011;61978;52.742;16.962;2022-12-18T15:29:29;100.35;;;55.25;;
73678;SDS011;61978;52.742;16.962;2022-12-18T15:32:03;93.03;;;54.58;;
73678;SDS011;61978;52.742;16.962;2022-12-18T15:34:31;89.92;;;53.90;;
73678;SDS011;61978;52.742;16.962;2022-12-18T15:36:59;95.28;;;55.33;;
73678;SDS011;61978;52.742;16.962;2022-12-18T15:39:26;93.65;;;53.98;;
73678;SDS011;61978;52.742;16.962;2022-12-18T15:41:53;91.63;;;51.42;;
73678;SDS011;61978;52.742;16.962;2022-12-18T15:44:37;84.72;;;49.88;;
73678;SDS011;61978;52.742;16.962;2022-12-18T15:47:07;78.35;;;49.30;;
73678;SDS011;61978;52.742;16.962;2022-12-18T15:49:37;74.55;;;48.17;;
73678;SDS011;61978;52.742;16.962;2022-12-18T15:52:04;77.53;;;46.80;;
73678;SDS011;61978;52.742;16.962;2022-12-18T15:54:30;78.67;;;46.13;;
73678;SDS011;61978;52.742;16.962;2022-12-18T15:57:16;66.07;;;38.50;;
73678;SDS011;61978;52.742;16.962;2022-12-18T15:59:54;84.00;;;50.33;;
73678;SDS011;61978;52.742;16.962;2022-12-18T16:04:50;78.12;;;44.75;;
73678;SDS011;61978;52.742;16.962;2022-12-18T16:07:17;78.45;;;45.43;;
73678;SDS011;61978;52.742;16.962;2022-12-18T16:09:45;75.42;;;44.77;;
73678;SDS011;61978;52.742;16.962;2022-12-18T16:12:15;74.40;;;45.45;;
73678;SDS011;61978;52.742;16.962;2022-12-18T16:14:44;68.07;;;43.03;;
73678;SDS011;61978;52.742;16.962;2022-12-18T16:17:11;66.55;;;39.98;;
73678;SDS011;61978;52.742;16.962;2022-12-18T16:19:39;70.47;;;43.15;;
73678;SDS011;61978;52.742;16.962;2022-12-18T16:22:15;70.42;;;41.88;;
73678;SDS011;61978;52.742;16.962;2022-12-18T16:24:38;55.75;;;31.02;;
73678;SDS011;61978;52.742;16.962;2022-12-18T16:27:05;71.37;;;43.45;;
73678;SDS011;61978;52.742;16.962;2022-12-18T16:29:31;41.63;;;20.08;;
73678;SDS011;61978;52.742;16.962;2022-12-18T16:32:00;55.55;;;28.38;;
73678;SDS011;61978;52.742;16.962;2022-12-18T16:34:28;65.35;;;41.48;;
73678;SDS011;61978;52.742;16.962;2022-12-18T16:37:00;71.90;;;39.78;;
73678;SDS011;61978;52.742;16.962;2022-12-18T16:39:30;66.57;;;41.02;;
73678;SDS011;61978;52.742;16.962;2022-12-18T16:41:57;64.00;;;40.83;;
73678;SDS011;61978;52.742;16.962;2022-12-18T16:44:24;64.05;;;39.83;;
73678;SDS011;61978;52.742;16.962;2022-12-18T16:46:50;66.00;;;40.65;;
73678;SDS011;61978;52.742;16.962;2022-12-18T16:49:17;74.77;;;42.53;;
73678;SDS011;61978;52.742;16.962;2022-12-18T16:51:47;74.07;;;41.35;;
73678;SDS011;61978;52.742;16.962;2022-12-18T16:54:16;72.30;;;41.53;;
73678;SDS011;61978;52.742;16.962;2022-12-18T16:56:43;71.60;;;40.92;;
73678;SDS011;61978;52.742;16.962;2022-12-18T16:59:10;66.47;;;39.95;;
73678;SDS011;61978;52.742;16.962;2022-12-18T17:01:36;68.90;;;41.30;;
73678;SDS011;61978;52.742;16.962;2022-12-18T17:04:04;71.45;;;43.05;;
73678;SDS011;61978;52.742;16.962;2022-12-18T17:06:33;81.67;;;47.27;;
73678;SDS011;61978;52.742;16.962;2022-12-18T17:09:02;79.47;;;46.75;;
73678;SDS011;61978;52.742;16.962;2022-12-18T17:11:34;79.00;;;45.07;;
73678;SDS011;61978;52.742;16.962;2022-12-18T17:14:05;83.40;;;47.98;;
73678;SDS011;61978;52.742;16.962;2022-12-18T17:16:33;88.10;;;47.27;;
73678;SDS011;61978;52.742;16.962;2022-12-18T17:19:00;76.30;;;46.23;;
73678;SDS011;61978;52.742;16.962;2022-12-18T17:21:27;86.70;;;47.48;;
73678;SDS011;61978;52.742;16.962;2022-12-18T17:23:53;86.32;;;50.10;;
73678;SDS011;61978;52.742;16.962;2022-12-18T17:26:20;87.80;;;49.85;;
73678;SDS011;61978;52.742;16.962;2022-12-18T17:28:47;91.28;;;50.10;;
73678;SDS011;61978;52.742;16.962;2022-12-18T17:31:15;91.12;;;53.10;;
73678;SDS011;61978;52.742;16.962;2022-12-18T17:33:44;90.32;;;51.98;;
73678;SDS011;61978;52.742;16.962;2022-12-18T17:36:10;93.67;;;52.20;;
73678;SDS011;61978;52.742;16.962;2022-12-18T17:38:37;93.20;;;55.45;;
73678;SDS011;61978;52.742;16.962;2022-12-18T17:41:05;95.77;;;54.35;;
73678;SDS011;61978;52.742;16.962;2022-12-18T17:43:34;97.37;;;53.92;;
73678;SDS011;61978;52.742;16.962;2022-12-18T17:46:01;103.55;;;57.85;;
73678;SDS011;61978;52.742;16.962;2022-12-18T17:48:28;102.62;;;59.18;;
73678;SDS011;61978;52.742;16.962;2022-12-18T17:50:59;104.83;;;54.75;;
73678;SDS011;61978;52.742;16.962;2022-12-18T17:53:28;103.85;;;59.35;;
73678;SDS011;61978;52.742;16.962;2022-12-18T17:55:57;100.02;;;58.17;;
73678;SDS011;61978;52.742;16.962;2022-12-18T17:58:27;107.15;;;58.92;;
73678;SDS011;61978;52.742;16.962;2022-12-18T18:00:54;97.78;;;55.10;;
73678;SDS011;61978;52.742;16.962;2022-12-18T18:03:20;104.07;;;57.60;;
73678;SDS011;61978;52.742;16.962;2022-12-18T18:05:47;104.35;;;57.48;;
73678;SDS011;61978;52.742;16.962;2022-12-18T18:08:13;101.38;;;59.20;;
73678;SDS011;61978;52.742;16.962;2022-12-18T18:10:40;108.95;;;57.65;;
73678;SDS011;61978;52.742;16.962;2022-12-18T18:13:16;105.05;;;56.40;;
73678;SDS011;61978;52.742;16.962;2022-12-18T18:15:55;98.15;;;54.45;;
73678;SDS011;61978;52.742;16.962;2022-12-18T18:18:22;96.67;;;54.77;;
73678;SDS011;61978;52.742;16.962;2022-12-18T18:20:49;92.00;;;50.10;;
73678;SDS011;61978;52.742;16.962;2022-12-18T18:23:16;96.78;;;51.58;;
73678;SDS011;61978;52.742;16.962;2022-12-18T18:25:42;93.52;;;53.30;;
73678;SDS011;61978;52.742;16.962;2022-12-18T18:28:08;95.65;;;49.67;;
73678;SDS011;61978;52.742;16.962;2022-12-18T18:58:06;93.83;;;50.67;;
73678;SDS011;61978;52.742;16.962;2022-12-18T19:00:33;90.50;;;53.17;;
73678;SDS011;61978;52.742;16.962;2022-12-18T19:03:00;92.42;;;53.23;;
73678;SDS011;61978;52.742;16.962;2022-12-18T19:05:26;99.07;;;54.18;;
73678;SDS011;61978;52.742;16.962;2022-12-18T19:07:54;91.80;;;53.08;;
73678;SDS011;61978;52.742;16.962;2022-12-18T19:10:21;91.25;;;50.55;;
73678;SDS011;61978;52.742;16.962;2022-12-18T19:12:47;92.10;;;52.98;;
73678;SDS011;61978;52.742;16.962;2022-12-18T19:15:32;89.75;;;53.20;;
73678;SDS011;61978;52.742;16.962;2022-12-18T19:17:59;94.62;;;52.48;;
73678;SDS011;61978;52.742;16.962;2022-12-18T19:20:25;90.95;;;49.80;;
73678;SDS011;61978;52.742;16.962;2022-12-18T19:22:54;90.40;;;47.55;;
73678;SDS011;61978;52.742;16.962;2022-12-18T19:25:21;96.47;;;53.90;;
73678;SDS011;61978;52.742;16.962;2022-12-18T19:27:50;90.57;;;51.05;;
73678;SDS011;61978;52.742;16.962;2022-12-18T19:30:20;94.70;;;53.05;;
73678;SDS011;61978;52.742;16.962;2022-12-18T19:32:46;97.53;;;53.83;;
73678;SDS011;61978;52.742;16.962;2022-12-18T19:38:41;98.00;;;52.80;;
73678;SDS011;61978;52.742;16.962;2022-12-18T19:53:10;104.12;;;55.80;;
73678;SDS011;61978;52.742;16.962;2022-12-18T19:55:41;100.18;;;51.73;;
73678;SDS011;61978;52.742;16.962;2022-12-18T19:58:08;108.90;;;59.05;;
73678;SDS011;61978;52.742;16.962;2022-12-18T20:00:35;113.62;;;58.50;;
73678;SDS011;61978;52.742;16.962;2022-12-18T20:03:02;111.97;;;59.50;;
73678;SDS011;61978;52.742;16.962;2022-12-18T20:05:28;111.77;;;59.88;;
73678;SDS011;61978;52.742;16.962;2022-12-18T20:07:55;106.50;;;58.30;;
73678;SDS011;61978;52.742;16.962;2022-12-18T20:10:21;113.85;;;55.00;;
73678;SDS011;61978;52.742;16.962;2022-12-18T20:12:48;114.70;;;60.83;;
73678;SDS011;61978;52.742;16.962;2022-12-18T20:15:15;114.55;;;58.17;;
73678;SDS011;61978;52.742;16.962;2022-12-18T20:17:42;116.67;;;61.25;;
73678;SDS011;61978;52.742;16.962;2022-12-18T20:20:09;112.92;;;62.25;;
73678;SDS011;61978;52.742;16.962;2022-12-18T20:22:36;114.08;;;60.80;;
73678;SDS011;61978;52.742;16.962;2022-12-18T20:25:02;118.02;;;62.83;;
73678;SDS011;61978;52.742;16.962;2022-12-18T20:27:29;115.50;;;61.60;;
73678;SDS011;61978;52.742;16.962;2022-12-18T20:29:56;118.62;;;63.02;;
73678;SDS011;61978;52.742;16.962;2022-12-18T20:32:22;119.62;;;62.08;;
73678;SDS011;61978;52.742;16.962;2022-12-18T20:34:50;119.15;;;60.85;;
73678;SDS011;61978;52.742;16.962;2022-12-18T20:37:17;116.97;;;62.98;;
73678;SDS011;61978;52.742;16.962;2022-12-18T20:39:45;115.75;;;61.95;;